Fort McMurray Airport
CYMM : rendu visible

Aérodrome :











RETROUVEZ-NOUS SUR...

 
LOGIN :

S'inscrire | Disclaimer

   EN    FR    IT 

 









Légende :    VFR   VFR Marginal   IFR   IFR Intensif   IFR Très Intensif
Visi : 
Plafond : 
>= 8 km
>= 3000ft
5 à 8 km
1000 à 3000 ft
1500m à 5 km
500 à 1000 ft
800 à 1500m
200 à 500 ft
< 800m
< 200 ft
Symboles :   Orages  Brouillard  Fortes neiges  Fortes précipitations  Vent > 20 kt






- Altitude de l'aérodrome : 1211 ft
- Code IATA : YMM


CYMM - Fort McMurray

DERNIER METAR :
  • 201700Z AUTO 12004KT 9SM OVC008 M09/M11 A3013 RMK SLP237

METARs EXPIRÉS :
  • 201600Z AUTO 08004KT 9SM OVC008 M10/M12 A3014 RMK SLP240
  • 201529Z AUTO 10002KT 9SM OVC010 M10/M12 A3014 RMK SLP240
  • 201506Z AUTO 10004KT 9SM BKN010 OVC013 M10/M12 A3014 RMK SLP240

TAF AMD TAF CYMM
Valide du 20 à 16h jusqu'au 21 à 01h UTC


201605Z 2016/2101 08005KT P6SM -SN OVC007
TEMPO 2016/2020 P6SM NSW OVC010
BECMG 2020/2022 P6SM NSW OVC012
FM202200 14005KT P6SM BKN012
BECMG 2022/2024 FEW015 BKN250
FM210000 14008KT P6SM BKN120 RMK FCST BASED ON AUTO OBS. NXT FCST BY 201900Z



MET'MAP, la Météo Aéronautique d'un coup d'oeil ! - Copyright ORBIFLY Décembre 2007 - Disclaimer

ORBIFLY MET'MAP TEAM :

Programmation & Développement : Alexandra Zaïnal
Conception & Développement : Baudouin d'Aumeries
Co-Programmation & Développement : Marc-Olivier Méhu
Soutien technique & logistique : Manuel Goepfert

Contact : metmap@orbifly.com




SOURCES & CREDITS :

   NOAA       Earth
Advisory